Akane — H3UD — position and weather

sailwx.info

Track history (hours):
 
Tides and Currents Weather Stations Pressure Air Temp Water Temp Dewpoint Dewpoint Depression Visibility Wind Speed Wind Dir Waves Ship Positions

Akane

Last reported at 2017-Feb-10 07:16 UTC. Time now 2017-Feb-28 03:20 UTC.
Position N 38°19' E 121°35'.
Warning: this ship's position is 17 days out of date.

Length 180 m; draft 11.6 m.

Type: Tanker. MMSI: 353172000.

Date/timePositionNaut miles runAvg speedWind from/ knotsBaromVisibWave heightAir tempDewpointWater temp
2017-Feb-10 07:16N 38°19' E 121°35'2413.6
2017-Feb-10 05:30N 38°28' E 121°07'1212.7
2017-Feb-10 04:33N 38°33' E 120°53'1212.2
2017-Feb-10 03:33N 38°36' E 120°38'1212.0
2017-Feb-10 02:33N 38°37' E 120°23'  
2017-Feb-03 16:22N 38°42' E 120°28'1012.2
2017-Feb-03 15:33N 38°40' E 120°40'1211.8
2017-Feb-03 14:33N 38°37' E 120°55'1212.0
2017-Feb-03 13:33N 38°31' E 121°09'1512.3
2017-Feb-03 12:20N 38°26' E 121°26'1012.5
2017-Feb-03 11:33N 38°23' E 121°38'3812.6
2017-Feb-03 08:33N 38°16' E 122°25'1110.9
2017-Feb-03 07:32N 38°10' E 122°37'  
Track history (hours):
 
Tides and Currents Weather Stations Pressure Air Temp Water Temp Dewpoint Dewpoint Depression Visibility Wind Speed Wind Dir Waves Ship Positions

Akane

Last reported at 2017-Feb-10 07:16 UTC. Time now 2017-Feb-28 03:20 UTC.
Position N 38°19' E 121°35'.
Warning: this ship's position is 17 days out of date.

Length 180 m; draft 11.6 m.

Type: Tanker. MMSI: 353172000.

Date/timePositionNaut miles runAvg speedWind from/ knotsBaromVisibWave heightAir tempDewpointWater temp
2017-Feb-10 07:16N 38°19' E 121°35'2413.6
2017-Feb-10 05:30N 38°28' E 121°07'1212.7
2017-Feb-10 04:33N 38°33' E 120°53'1212.2
2017-Feb-10 03:33N 38°36' E 120°38'1212.0
2017-Feb-10 02:33N 38°37' E 120°23'  
2017-Feb-03 16:22N 38°42' E 120°28'1012.2
2017-Feb-03 15:33N 38°40' E 120°40'1211.8
2017-Feb-03 14:33N 38°37' E 120°55'1212.0
2017-Feb-03 13:33N 38°31' E 121°09'1512.3
2017-Feb-03 12:20N 38°26' E 121°26'1012.5
2017-Feb-03 11:33N 38°23' E 121°38'3812.6
2017-Feb-03 08:33N 38°16' E 122°25'1110.9
2017-Feb-03 07:32N 38°10' E 122°37'  

Dump ship's entire track history